Forside
METAR-TAF:

METAR-TAF

Lufthavne :

Växjö, Sverige

Breddekreds: 56-51N, længdekreds: 014-50E, højde: 199 m

Aktuelle vejr

Denne rapport blev lavet for 32 minutter siden, kl. 23:50 UTC
Vind 2 kt fra sydsydvest
Temperatur -2°C
Fugtighed 100%
Tryk 1025 hPa
Sigt: 4000 m
Overskyet i en højde af 200 ft
dis

METAR: ESMX 222350Z 20002KT 4000 BR OVC002 M02/M02 Q1025

Tid: 01:22 (00:22 UTC)

Vejrudsigter

Denne rapport blev lavet for 52 minutter siden, kl. 23:30 UTC
Foreløbig gælder fra 23 på 00 UTC til 23 på 02 UTC
Vind 2 kt fra varierende retninger
Sigt 10 km eller mere
Overskyet i en højde af 600 ft
Sandsynlighed 40%
fra 23 på 00 UTC til 23 på 02 UTC
Sigt: 2000 m
Brudte skyer i en højde af 300 ft
dis

TAF: ESMX 222330Z 2300/2302 VRB02KT 9999 OVC006 PROB40 2300/2302 2000 BR BKN003

Vejrobservationer og prognoser fra mere end 4000 lufthavne (METAR og TAF).

De gule og røde prikker repræsenterer de meteorologiske stationer.

Flyt musen over at se navnet på stationen.

Så klik over at se vejr observationer og prognoser.

At skifte det kort: Klik på de grønne knapper med et sort kors for at zoome ind; på den grønne knap med en bindestreg for at zoome ud; eller på de grønne pile for tilstødende kort.


METAR-TAF: